createdAt,value
2019-03-31T00:02:26.260Z,186.62
2019-03-31T00:04:58.123Z,185.78
2019-03-31T00:07:29.884Z,182.12
2019-03-31T00:10:01.643Z,190.05
2019-03-31T00:12:33.400Z,193.80
2019-03-31T00:15:06.854Z,190.43
2019-03-31T00:17:38.253Z,197.32
2019-03-31T00:20:09.913Z,180.18
2019-03-31T00:22:41.777Z,184.37
2019-03-31T00:25:13.256Z,181.60
2019-03-31T00:27:44.898Z,188.03
2019-03-31T00:30:16.649Z,244.93
2019-03-31T00:32:48.313Z,220.63
2019-03-31T00:35:20.060Z,239.27
2019-03-31T00:37:51.725Z,218.05
2019-03-31T00:40:23.590Z,213.07
2019-03-31T00:42:55.060Z,200.28
2019-03-31T00:45:26.798Z,199.12
2019-03-31T00:47:58.259Z,196.02
2019-03-31T00:50:29.802Z,189.50
2019-03-31T00:53:01.579Z,198.97
2019-03-31T00:55:33.228Z,191.43
2019-03-31T00:58:04.976Z,187.68
2019-03-31T01:00:47.401Z,175.72
2019-03-31T01:03:20.478Z,200.40
2019-03-31T01:05:51.965Z,182.25
2019-03-31T01:08:24.603Z,194.87
2019-03-31T01:10:56.062Z,189.90
2019-03-31T01:13:27.957Z,187.88
2019-03-31T01:15:59.294Z,191.85
2019-03-31T01:18:31.246Z,190.90
2019-03-31T01:21:02.860Z,190.25
2019-03-31T01:23:35.868Z,183.85
2019-03-31T01:26:07.649Z,193.22
2019-03-31T01:28:39.410Z,192.55
2019-03-31T01:31:10.886Z,195.22
2019-03-31T01:33:42.417Z,191.05
2019-03-31T01:36:14.296Z,200.55
2019-03-31T01:38:45.758Z,198.78
2019-03-31T01:41:17.494Z,205.77
2019-03-31T01:43:49.254Z,248.68
2019-03-31T01:46:22.044Z,225.65
2019-03-31T01:48:53.400Z,218.85
2019-03-31T01:51:25.150Z,235.65
2019-03-31T01:53:56.909Z,258.23
2019-03-31T01:56:28.376Z,227.68
2019-03-31T01:59:00.122Z,241.00
2019-03-31T02:01:31.778Z,257.95
2019-03-31T02:04:03.631Z,242.80
2019-03-31T02:06:35.126Z,252.05
2019-03-31T02:09:07.278Z,266.82
2019-03-31T02:11:38.714Z,249.32
2019-03-31T02:14:10.308Z,222.70
2019-03-31T02:16:42.142Z,239.27
2019-03-31T02:19:13.894Z,215.55
2019-03-31T02:21:45.658Z,217.15
2019-03-31T02:24:17.418Z,228.60
2019-03-31T02:26:49.071Z,211.77
2019-03-31T02:29:21.861Z,208.85
2019-03-31T02:31:53.617Z,226.88
2019-03-31T02:34:25.095Z,201.55
2019-03-31T02:36:56.770Z,198.85
2019-03-31T02:39:28.386Z,209.92
2019-03-31T02:42:00.055Z,217.57
2019-03-31T02:44:31.706Z,212.95
2019-03-31T02:47:03.258Z,186.07
2019-03-31T02:49:35.029Z,197.98
2019-03-31T02:52:06.692Z,193.78
2019-03-31T02:54:39.490Z,187.75
2019-03-31T02:57:11.335Z,191.85
2019-03-31T02:59:43.082Z,179.97
2019-03-31T03:02:14.843Z,193.43
2019-03-31T03:04:46.499Z,190.68
2019-03-31T03:07:18.372Z,181.07
2019-03-31T03:09:50.268Z,191.80
2019-03-31T03:12:21.719Z,199.85
2019-03-31T03:14:53.441Z,334.30
2019-03-31T03:17:25.109Z,406.70
2019-03-31T03:19:56.759Z,766.12
2019-03-31T03:22:28.514Z,874.35
2019-03-31T03:24:59.899Z,614.92
2019-03-31T03:27:31.529Z,764.10
2019-03-31T03:30:03.086Z,1231.63
2019-03-31T03:32:34.854Z,1381.60
2019-03-31T03:35:06.293Z,1013.55
2019-03-31T03:37:37.961Z,1041.10
2019-03-31T03:40:09.744Z,826.67
2019-03-31T03:42:41.468Z,800.83
2019-03-31T03:45:13.343Z,865.25
2019-03-31T03:47:44.785Z,521.27
2019-03-31T03:50:16.441Z,500.00
2019-03-31T03:52:48.104Z,767.67
2019-03-31T03:55:19.657Z,551.63
2019-03-31T03:57:51.515Z,564.15
2019-03-31T04:00:23.104Z,406.85
2019-03-31T04:02:54.751Z,378.88
2019-03-31T04:05:26.599Z,353.27
2019-03-31T04:07:58.354Z,348.90
2019-03-31T04:10:45.060Z,356.87
2019-03-31T04:13:16.621Z,549.50
2019-03-31T04:15:48.373Z,482.80
2019-03-31T04:18:20.041Z,518.60
2019-03-31T04:20:51.785Z,385.65
2019-03-31T04:23:23.547Z,412.25
2019-03-31T04:25:55.128Z,439.30
2019-03-31T04:28:26.965Z,339.50
2019-03-31T04:30:58.446Z,342.77
2019-03-31T04:33:48.490Z,350.93
2019-03-31T04:36:03.279Z,332.75
2019-03-31T04:38:35.135Z,342.52
2019-03-31T04:41:06.691Z,322.05
2019-03-31T04:43:38.451Z,328.37
2019-03-31T04:46:09.908Z,325.57
2019-03-31T04:48:41.460Z,327.93
2019-03-31T04:51:13.119Z,336.00
2019-03-31T04:53:44.874Z,297.30
2019-03-31T04:56:16.532Z,316.42
2019-03-31T04:58:48.191Z,294.27
2019-03-31T05:01:19.850Z,286.90
2019-03-31T05:04:03.948Z,264.45
2019-03-31T05:06:24.604Z,260.43
2019-03-31T05:08:56.252Z,236.62
2019-03-31T05:11:27.602Z,233.70
2019-03-31T05:13:59.468Z,219.05
2019-03-31T05:16:31.029Z,179.23
2019-03-31T05:19:02.890Z,158.00
2019-03-31T05:21:34.438Z,156.15
2019-03-31T05:24:06.307Z,155.07
2019-03-31T05:26:37.765Z,157.25
2019-03-31T05:29:09.515Z,159.97
2019-03-31T05:31:41.021Z,140.50
2019-03-31T05:34:19.029Z,155.65
2019-03-31T05:36:45.905Z,156.28
2019-03-31T05:39:17.583Z,136.62
2019-03-31T05:41:49.341Z,142.13
2019-03-31T05:44:21.103Z,150.55
2019-03-31T05:46:52.667Z,162.10
2019-03-31T05:49:24.418Z,147.82
2019-03-31T05:51:57.298Z,147.53
2019-03-31T05:54:29.062Z,158.47
2019-03-31T05:57:00.821Z,151.82
2019-03-31T05:59:32.376Z,145.50
2019-03-31T06:02:04.857Z,137.30
2019-03-31T06:04:36.436Z,145.87
2019-03-31T06:07:08.174Z,137.90
2019-03-31T06:09:39.791Z,140.57
2019-03-31T06:12:11.588Z,134.70
2019-03-31T06:14:43.188Z,140.95
2019-03-31T06:17:15.007Z,144.55
2019-03-31T06:19:46.564Z,137.10
2019-03-31T06:22:18.424Z,141.88
2019-03-31T06:24:49.981Z,147.22
2019-03-31T06:27:21.740Z,136.28
2019-03-31T06:29:53.503Z,140.40
2019-03-31T06:32:25.055Z,143.10
2019-03-31T06:34:57.026Z,148.30
2019-03-31T06:37:28.691Z,148.43
2019-03-31T06:40:00.376Z,153.40
2019-03-31T06:42:32.200Z,154.90
2019-03-31T06:45:04.474Z,142.50
2019-03-31T06:47:35.929Z,135.25
2019-03-31T06:50:08.280Z,115.77
2019-03-31T06:52:40.072Z,109.48
2019-03-31T06:55:11.647Z,109.50
2019-03-31T06:57:43.381Z,108.17
2019-03-31T07:00:15.135Z,106.20
2019-03-31T07:02:46.797Z,103.32
2019-03-31T07:05:18.557Z,89.07
2019-03-31T07:07:50.210Z,90.38
2019-03-31T07:10:21.686Z,94.60
2019-03-31T07:12:53.332Z,109.85
2019-03-31T07:15:24.988Z,107.90
2019-03-31T07:17:56.636Z,97.90
2019-03-31T07:20:28.400Z,105.47
2019-03-31T07:22:59.982Z,94.95
2019-03-31T07:25:31.742Z,98.47
2019-03-31T07:28:03.199Z,96.12
2019-03-31T07:30:34.923Z,64.72
2019-03-31T07:33:06.482Z,76.50
2019-03-31T07:35:39.037Z,66.77
2019-03-31T07:38:10.720Z,67.17
2019-03-31T07:40:42.625Z,70.25
2019-03-31T07:43:15.267Z,67.35
2019-03-31T07:45:46.919Z,67.08
2019-03-31T07:48:18.784Z,84.67
2019-03-31T07:50:59.239Z,77.35
2019-03-31T07:53:34.275Z,152.10
2019-03-31T07:56:05.940Z,187.95
2019-03-31T07:58:37.847Z,149.12
2019-03-31T08:01:09.458Z,69.37
2019-03-31T08:03:41.313Z,64.60
2019-03-31T08:06:12.867Z,61.55
2019-03-31T08:08:56.604Z,98.55
2019-03-31T08:11:28.267Z,64.32
2019-03-31T08:14:00.121Z,56.92
2019-03-31T08:16:31.619Z,50.08
2019-03-31T08:19:03.447Z,54.77
2019-03-31T08:21:35.002Z,60.55
2019-03-31T08:24:06.950Z,56.77
2019-03-31T08:26:47.638Z,56.10
2019-03-31T08:32:16.833Z,58.25
2019-03-31T08:34:48.315Z,51.18
2019-03-31T08:37:20.045Z,59.70
2019-03-31T08:39:51.534Z,67.67
2019-03-31T08:42:23.046Z,50.30
2019-03-31T08:44:54.817Z,49.00
2019-03-31T08:47:26.570Z,55.78
2019-03-31T08:50:02.835Z,53.68
2019-03-31T08:52:48.211Z,79.95
2019-03-31T08:55:19.666Z,73.17
2019-03-31T08:57:51.414Z,53.58
2019-03-31T09:00:27.376Z,44.63
2019-03-31T09:02:59.131Z,66.70
2019-03-31T09:05:31.101Z,45.78
2019-03-31T09:08:02.655Z,50.30
2019-03-31T09:10:34.417Z,47.33
2019-03-31T09:13:06.200Z,44.63
2019-03-31T09:15:37.830Z,44.20
2019-03-31T09:18:09.692Z,58.02
2019-03-31T09:20:41.151Z,52.10
2019-03-31T09:23:12.913Z,44.13
2019-03-31T09:25:47.456Z,43.60
2019-03-31T09:28:17.453Z,45.00
2019-03-31T09:30:48.784Z,47.78
2019-03-31T09:33:21.486Z,49.03
2019-03-31T09:35:53.245Z,44.98
2019-03-31T09:38:25.000Z,49.15
2019-03-31T09:40:56.758Z,43.42
2019-03-31T09:43:28.623Z,45.48
2019-03-31T09:46:14.019Z,52.17
2019-03-31T09:48:46.979Z,45.08
2019-03-31T09:51:18.745Z,38.50
2019-03-31T09:53:50.232Z,51.95
2019-03-31T09:56:21.853Z,49.38
2019-03-31T09:58:53.723Z,44.23
2019-03-31T10:01:25.374Z,43.17
2019-03-31T10:03:57.243Z,38.25
2019-03-31T10:06:30.477Z,41.48
2019-03-31T10:09:02.293Z,35.20
2019-03-31T10:11:34.715Z,38.33
2019-03-31T10:14:06.439Z,41.75
2019-03-31T10:24:28.982Z,29.95
2019-03-31T10:27:00.791Z,38.83
2019-03-31T10:29:40.938Z,41.60
2019-03-31T10:32:12.588Z,37.03
2019-03-31T10:38:39.307Z,48.30
2019-03-31T10:41:11.171Z,46.60
2019-03-31T10:43:42.829Z,37.50
2019-03-31T10:46:14.586Z,36.90
2019-03-31T10:52:42.329Z,35.95
2019-03-31T10:55:13.796Z,39.27
2019-03-31T10:57:45.337Z,36.73
2019-03-31T11:00:37.263Z,34.50
2019-03-31T11:03:10.179Z,44.42
2019-03-31T11:05:41.801Z,46.75
2019-03-31T11:12:10.571Z,39.45
2019-03-31T11:14:42.135Z,51.88
2019-03-31T11:17:14.086Z,42.38
2019-03-31T11:19:45.749Z,58.05
2019-03-31T11:22:19.141Z,48.30
2019-03-31T11:24:50.603Z,42.70
2019-03-31T11:27:22.359Z,49.35
2019-03-31T11:29:54.008Z,43.02
2019-03-31T11:32:25.967Z,111.60
2019-03-31T11:34:57.837Z,41.25
2019-03-31T11:37:29.295Z,44.65
2019-03-31T11:40:00.954Z,59.55
2019-03-31T11:42:32.861Z,55.00
2019-03-31T11:45:07.339Z,56.20
2019-03-31T11:47:38.791Z,44.40
2019-03-31T11:50:10.344Z,46.50
2019-03-31T11:52:42.103Z,54.67
2019-03-31T11:55:14.891Z,45.25
2019-03-31T11:57:46.655Z,41.13
2019-03-31T12:00:22.717Z,39.78
2019-03-31T12:02:54.074Z,36.65
2019-03-31T12:05:26.734Z,38.42
2019-03-31T12:07:58.143Z,38.70
2019-03-31T12:10:29.955Z,39.38
2019-03-31T12:13:01.504Z,36.68
2019-03-31T12:15:33.279Z,34.45
2019-03-31T12:18:04.914Z,33.10
2019-03-31T12:20:36.838Z,32.30
2019-03-31T12:23:08.562Z,34.70
2019-03-31T12:25:40.313Z,29.63
2019-03-31T12:28:12.063Z,29.40
2019-03-31T12:30:43.831Z,26.52
2019-03-31T12:33:15.301Z,31.37
2019-03-31T12:35:46.841Z,28.20
2019-03-31T12:38:18.495Z,35.08
2019-03-31T12:40:50.366Z,25.90
2019-03-31T12:43:21.707Z,26.82
2019-03-31T12:45:53.571Z,26.97
2019-03-31T12:48:25.348Z,27.75
2019-03-31T12:50:58.012Z,24.15
2019-03-31T12:57:25.339Z,24.50
2019-03-31T12:59:57.104Z,22.22
2019-03-31T13:02:28.871Z,26.35
2019-03-31T13:05:00.623Z,22.87
2019-03-31T13:07:32.112Z,17.40
2019-03-31T13:13:44.469Z,31.57
2019-03-31T13:16:16.023Z,22.17
2019-03-31T13:18:47.783Z,19.75
2019-03-31T13:21:19.576Z,44.27
2019-03-31T13:23:51.407Z,27.75
2019-03-31T13:26:23.072Z,23.85
2019-03-31T13:28:54.725Z,75.15
2019-03-31T13:31:26.635Z,33.65
2019-03-31T13:33:58.243Z,22.13
2019-03-31T13:36:30.004Z,19.82
2019-03-31T13:39:01.559Z,21.70
2019-03-31T13:41:34.649Z,18.92
2019-03-31T13:44:06.418Z,19.00
2019-03-31T13:46:37.962Z,50.35
2019-03-31T13:49:09.633Z,26.10
2019-03-31T13:51:41.382Z,17.25
2019-03-31T13:54:12.963Z,14.55
2019-03-31T13:56:47.756Z,27.13
2019-03-31T13:59:17.760Z,18.23
2019-03-31T14:01:49.549Z,49.63
2019-03-31T14:04:20.936Z,16.20
2019-03-31T14:06:52.656Z,22.62
2019-03-31T14:09:24.419Z,21.80
2019-03-31T14:11:56.082Z,20.62
2019-03-31T14:14:27.746Z,18.80
2019-03-31T14:16:59.288Z,26.55
2019-03-31T14:19:31.152Z,15.03
2019-03-31T14:22:02.610Z,19.75
2019-03-31T14:24:34.169Z,70.47
2019-03-31T14:27:05.949Z,43.02
2019-03-31T14:29:37.785Z,59.93
2019-03-31T14:32:09.749Z,58.25
2019-03-31T14:34:41.203Z,229.57
2019-03-31T14:37:12.861Z,521.48
2019-03-31T14:39:44.312Z,62.05
2019-03-31T14:42:16.086Z,43.48
2019-03-31T14:44:47.833Z,175.55
2019-03-31T14:47:19.491Z,360.98
2019-03-31T14:49:51.362Z,182.55
2019-03-31T14:52:27.643Z,38.30
2019-03-31T14:54:56.314Z,39.95
2019-03-31T14:57:28.063Z,30.05
2019-03-31T15:00:13.600Z,55.67
2019-03-31T15:02:32.815Z,36.05
2019-03-31T15:05:05.594Z,39.25
2019-03-31T15:07:36.926Z,27.58
2019-03-31T15:10:08.423Z,43.25
2019-03-31T15:12:40.171Z,31.42
2019-03-31T15:15:11.923Z,30.90
2019-03-31T15:17:43.682Z,33.42
2019-03-31T15:20:15.339Z,21.12
2019-03-31T15:22:47.106Z,23.02
2019-03-31T15:25:18.965Z,55.45
2019-03-31T15:27:50.417Z,77.90
2019-03-31T15:30:22.076Z,61.70
2019-03-31T15:32:53.733Z,58.10
2019-03-31T15:35:25.595Z,42.83
2019-03-31T15:37:57.457Z,33.23
2019-03-31T15:40:28.918Z,30.85
2019-03-31T15:43:00.658Z,28.52
2019-03-31T15:45:32.335Z,26.12
2019-03-31T15:48:04.000Z,30.10
2019-03-31T15:50:35.747Z,101.92
2019-03-31T15:53:07.411Z,140.40
2019-03-31T15:55:38.801Z,75.42
2019-03-31T15:58:10.616Z,63.68
2019-03-31T16:00:42.480Z,244.03
2019-03-31T16:03:14.038Z,185.95
2019-03-31T16:05:45.797Z,118.33
2019-03-31T16:08:17.354Z,114.08
2019-03-31T16:10:49.726Z,136.12
2019-03-31T16:13:21.382Z,95.65
2019-03-31T16:15:53.140Z,91.15
2019-03-31T16:18:24.900Z,87.88
2019-03-31T16:20:56.487Z,99.32
2019-03-31T16:23:29.348Z,101.60
2019-03-31T16:26:01.107Z,112.75
2019-03-31T16:28:32.495Z,117.60
2019-03-31T16:31:04.120Z,113.08
2019-03-31T16:33:35.873Z,98.12
2019-03-31T16:36:07.640Z,92.62
2019-03-31T16:38:39.096Z,113.08
2019-03-31T16:41:10.753Z,155.85
2019-03-31T16:43:42.408Z,211.20
2019-03-31T16:46:14.164Z,179.35
2019-03-31T16:48:46.025Z,180.67
2019-03-31T16:51:17.505Z,149.20
2019-03-31T16:53:49.241Z,163.25
2019-03-31T16:56:20.801Z,177.57
2019-03-31T16:58:52.246Z,154.63
2019-03-31T17:01:23.752Z,132.47
2019-03-31T17:03:55.562Z,152.00
2019-03-31T17:06:27.034Z,147.90
2019-03-31T17:08:58.685Z,107.58
2019-03-31T17:11:30.332Z,105.47
2019-03-31T17:14:01.993Z,96.37
2019-03-31T17:16:33.654Z,102.95
2019-03-31T17:19:05.223Z,105.65
2019-03-31T17:21:36.966Z,116.95
2019-03-31T17:24:08.720Z,163.50
2019-03-31T17:26:40.481Z,216.57
2019-03-31T17:29:11.962Z,231.70
2019-03-31T17:31:43.698Z,338.15
2019-03-31T17:34:15.353Z,379.90
2019-03-31T17:36:47.113Z,250.85
2019-03-31T17:39:18.779Z,367.48
2019-03-31T17:41:50.556Z,303.48
2019-03-31T17:44:22.192Z,289.82
2019-03-31T17:46:53.651Z,399.45
2019-03-31T17:49:25.309Z,419.40
2019-03-31T17:51:56.958Z,381.02
2019-03-31T17:54:28.770Z,335.95
2019-03-31T17:57:00.582Z,442.05
2019-03-31T17:59:32.241Z,455.60
2019-03-31T18:02:04.100Z,465.32
2019-03-31T18:04:38.374Z,348.32
2019-03-31T18:07:08.884Z,280.55
2019-03-31T18:09:40.617Z,336.45
2019-03-31T18:12:12.375Z,238.68
2019-03-31T18:14:43.918Z,195.68
2019-03-31T18:17:15.686Z,152.43
2019-03-31T18:19:47.451Z,145.02
2019-03-31T18:22:19.029Z,135.43
2019-03-31T18:24:50.667Z,117.50
2019-03-31T18:27:22.154Z,119.13
2019-03-31T18:29:53.512Z,115.35
2019-03-31T18:32:24.881Z,120.30
2019-03-31T18:34:56.264Z,130.12
2019-03-31T18:37:27.736Z,124.80
2019-03-31T18:39:59.481Z,101.50
2019-03-31T18:42:31.055Z,106.05
2019-03-31T18:45:02.691Z,102.78
2019-03-31T18:47:34.554Z,98.67
2019-03-31T18:50:06.599Z,89.92
2019-03-31T18:52:38.043Z,92.25
2019-03-31T18:55:11.370Z,79.12
2019-03-31T18:57:47.631Z,84.52
2019-03-31T19:00:39.001Z,82.08
2019-03-31T19:03:18.480Z,82.33
2019-03-31T19:05:55.052Z,83.55
2019-03-31T19:08:40.224Z,95.92
2019-03-31T19:11:31.723Z,82.88
2019-03-31T19:14:21.125Z,88.00
2019-03-31T19:17:10.466Z,93.03
2019-03-31T19:19:43.742Z,149.25
2019-03-31T19:22:26.247Z,127.05
2019-03-31T19:25:01.945Z,156.55
2019-03-31T19:27:35.290Z,145.80
2019-03-31T19:30:26.288Z,174.35
2019-03-31T19:33:02.653Z,185.40
2019-03-31T19:35:41.439Z,177.75
2019-03-31T19:38:17.624Z,188.90
2019-03-31T19:41:03.815Z,177.07
2019-03-31T19:43:31.413Z,208.50
2019-03-31T19:46:19.733Z,236.40
2019-03-31T19:48:55.976Z,237.17
2019-03-31T19:51:44.431Z,232.50
2019-03-31T19:54:17.785Z,231.15
2019-03-31T19:57:07.192Z,231.38
2019-03-31T19:59:57.681Z,248.40
2019-03-31T20:02:39.986Z,236.55
2019-03-31T20:05:19.454Z,216.88
2019-03-31T20:08:09.084Z,227.93
2019-03-31T20:10:42.480Z,229.23
2019-03-31T20:13:32.356Z,223.30
2019-03-31T20:16:11.550Z,225.07
2019-03-31T20:19:01.165Z,201.67
2019-03-31T20:21:43.305Z,220.22
2019-03-31T20:24:16.854Z,220.10
2019-03-31T20:26:50.142Z,236.92
2019-03-31T20:29:39.505Z,239.20
2019-03-31T20:32:29.067Z,242.35
2019-03-31T20:35:14.345Z,228.00
2019-03-31T20:37:50.791Z,226.92
2019-03-31T20:40:40.456Z,212.60
2019-03-31T20:43:30.146Z,207.47
2019-03-31T20:46:04.334Z,209.30
2019-03-31T20:48:34.889Z,196.57
2019-03-31T20:51:06.445Z,185.03
2019-03-31T20:53:38.307Z,191.35
2019-03-31T20:56:10.025Z,167.82
2019-03-31T20:58:41.721Z,182.50
2019-03-31T21:01:13.590Z,173.68
2019-03-31T21:03:45.167Z,193.10
2019-03-31T21:06:17.109Z,190.45
2019-03-31T21:08:48.672Z,187.22
2019-03-31T21:11:20.321Z,186.97
2019-03-31T21:13:56.648Z,191.40
2019-03-31T21:16:26.248Z,174.23
2019-03-31T21:18:58.161Z,187.15
2019-03-31T21:21:29.820Z,198.60
2019-03-31T21:24:01.697Z,200.85
2019-03-31T21:26:33.235Z,208.28
2019-03-31T21:29:04.890Z,196.90
2019-03-31T21:31:36.766Z,201.90
2019-03-31T21:34:08.313Z,209.77
2019-03-31T21:36:40.172Z,204.15
2019-03-31T21:39:12.036Z,199.35
2019-03-31T21:41:43.599Z,204.60
2019-03-31T21:44:15.250Z,193.70
2019-03-31T21:46:47.214Z,210.35
2019-03-31T21:49:18.702Z,195.15
2019-03-31T21:51:50.342Z,180.00
2019-03-31T21:54:21.885Z,191.98
2019-03-31T21:56:53.644Z,197.80
2019-03-31T21:59:25.390Z,186.10
2019-03-31T22:01:57.388Z,185.07
2019-03-31T22:04:29.228Z,181.87
2019-03-31T22:07:00.681Z,176.95
2019-03-31T22:09:32.341Z,168.05
2019-03-31T22:12:04.200Z,169.07
2019-03-31T22:14:35.759Z,167.03
2019-03-31T22:17:07.420Z,171.35
2019-03-31T22:19:39.101Z,155.20
2019-03-31T22:22:10.734Z,166.77
2019-03-31T22:24:42.219Z,166.30
2019-03-31T22:27:14.050Z,147.85
2019-03-31T22:29:45.605Z,123.87
2019-03-31T22:32:18.555Z,72.00
2019-03-31T22:34:50.350Z,54.35
2019-03-31T22:37:21.867Z,49.90
2019-03-31T22:39:53.579Z,44.35
2019-03-31T22:42:25.220Z,46.55
2019-03-31T22:44:56.783Z,49.75
2019-03-31T22:47:28.231Z,40.80
2019-03-31T22:50:00.434Z,46.25
2019-03-31T22:52:32.057Z,52.55
2019-03-31T22:55:04.329Z,44.38
2019-03-31T22:57:35.648Z,50.65
2019-03-31T23:00:08.877Z,52.67
2019-03-31T23:02:41.553Z,49.75
2019-03-31T23:05:13.315Z,50.33
2019-03-31T23:07:44.970Z,51.45
2019-03-31T23:10:16.732Z,48.17
2019-03-31T23:12:48.200Z,42.25
2019-03-31T23:15:19.843Z,50.45
2019-03-31T23:17:51.603Z,39.55
2019-03-31T23:20:23.467Z,40.63
2019-03-31T23:22:55.226Z,35.95
2019-03-31T23:25:26.683Z,43.40
2019-03-31T23:27:58.543Z,34.67
2019-03-31T23:30:31.323Z,38.13
2019-03-31T23:33:02.985Z,35.95
2019-03-31T23:35:34.731Z,40.88
2019-03-31T23:38:06.514Z,41.95
2019-03-31T23:40:38.172Z,38.85
2019-03-31T23:43:09.735Z,43.20
2019-03-31T23:45:42.405Z,37.17
2019-03-31T23:48:13.971Z,36.98
2019-03-31T23:50:45.917Z,32.42
2019-03-31T23:53:17.474Z,36.20
2019-03-31T23:55:49.338Z,37.65
2019-03-31T23:58:20.889Z,39.13
